Sticklerstown, Pennsylvania
Current Conditions -  °F | °C
As of 3:14 AM on Monday 24 Nov 2014 (Local Time) from KLNS Reporting Station
Moderate Rain Moderate Rain  
Wind Chill: 59°   Ceiling: 800
Heat Index: 59°   Visibility: 3mi
Dew Point: 57°   Wind: 17mph
Humidity: 93%   Direction: 160°SSE
Pressure: 29.65"   Gusts: NA
Location:  40.3035°N, 76.254°W
Report Text: KLNS 240814Z AUTO 16015KT 3SM RA BR BKN008 BKN012 OVC019 15/14 A2965 RMK AO2 P0003 T01500139
Loading
Personal Weather Stations






























Interactive Weather Map New forecast layout! Learn more

10-Day Weather Forecast

Advertisements
Track Severe Weather on mobile